Terminal Aerodrome Forecast
Issued by NWS Sioux Falls, SD

Home | Current Version | Previous Version | Graphics & Text | Print | Product List | Glossary On
Versions: 1 2 3 4 5 6 7 8 9 10 11 12 13
104
FTUS43 KFSD 181729
TAFFSD
TAF
KFSD 181729Z 1818/1918 35012KT 1 1/2SM -SN OVC015
     FM181915 32012KT 3SM -SN OVC015
     FM182100 31012KT 6SM -SN OVC015
     FM182300 34008KT P6SM SCT020 OVC050
     FM190800 34006KT P6SM SCT200=

USA.gov is the U.S. government's official web portal to all federal, state and local government web resources and services.